createdAt,value
2023-05-15T00:02:38.013Z,11.96
2023-05-15T00:05:39.924Z,11.93
2023-05-15T00:08:41.733Z,11.89
2023-05-15T00:11:43.286Z,11.86
2023-05-15T00:14:44.858Z,11.81
2023-05-15T00:17:46.487Z,11.79
2023-05-15T00:20:48.101Z,11.78
2023-05-15T00:23:49.620Z,11.74
2023-05-15T00:26:51.217Z,11.69
2023-05-15T00:29:52.755Z,11.66
2023-05-15T00:32:54.397Z,11.61
2023-05-15T00:35:55.976Z,11.53
2023-05-15T00:38:57.667Z,11.48
2023-05-15T00:42:02.193Z,11.46
2023-05-15T00:45:06.514Z,11.44
2023-05-15T00:48:10.055Z,11.39
2023-05-15T00:51:12.160Z,11.36
2023-05-15T00:54:13.832Z,11.32
2023-05-15T00:57:17.217Z,11.25
2023-05-15T01:00:20.442Z,11.19
2023-05-15T01:03:22.182Z,11.14
2023-05-15T01:06:23.822Z,11.10
2023-05-15T01:09:27.669Z,11.06
2023-05-15T01:12:32.030Z,11.01
2023-05-15T01:15:34.161Z,10.94
2023-05-15T01:18:36.857Z,10.88
2023-05-15T01:21:38.521Z,10.80
2023-05-15T01:25:02.024Z,10.78
2023-05-15T01:28:09.061Z,10.73
2023-05-15T01:31:16.966Z,10.69
2023-05-15T01:34:21.604Z,10.66
2023-05-15T01:37:28.679Z,10.63
2023-05-15T01:40:30.388Z,10.61
2023-05-15T01:43:35.292Z,10.59
2023-05-15T01:46:39.710Z,10.54
2023-05-15T01:49:45.043Z,10.52
2023-05-15T01:52:54.138Z,10.48
2023-05-15T01:55:56.321Z,10.42
2023-05-15T01:59:00.263Z,10.37
2023-05-15T02:02:04.069Z,10.32
2023-05-15T02:05:06.589Z,10.26
2023-05-15T02:08:09.503Z,10.23
2023-05-15T02:11:11.733Z,10.20
2023-05-15T02:14:16.351Z,10.15
2023-05-15T02:17:17.950Z,10.11
2023-05-15T02:20:19.550Z,10.09
2023-05-15T02:23:21.921Z,10.05
2023-05-15T02:26:38.657Z,10.01
2023-05-15T02:29:55.228Z,9.95
2023-05-15T02:33:14.696Z,9.88
2023-05-15T02:36:23.624Z,9.88
2023-05-15T02:39:26.352Z,9.87
2023-05-15T02:42:29.865Z,9.83
2023-05-15T02:45:32.649Z,9.81
2023-05-15T02:48:35.721Z,9.76
2023-05-15T02:51:37.589Z,9.74
2023-05-15T02:54:39.151Z,9.70
2023-05-15T02:57:40.765Z,9.64
2023-05-15T03:00:42.398Z,9.59
2023-05-15T03:03:43.946Z,9.56
2023-05-15T03:06:45.556Z,9.54
2023-05-15T03:09:47.159Z,9.51
2023-05-15T03:12:48.707Z,9.49
2023-05-15T03:15:50.466Z,9.47
2023-05-15T03:18:52.305Z,9.44
2023-05-15T03:21:53.923Z,9.42
2023-05-15T03:24:55.451Z,9.40
2023-05-15T03:27:57.011Z,9.36
2023-05-15T03:30:58.642Z,9.34
2023-05-15T03:34:00.299Z,9.31
2023-05-15T03:37:01.880Z,9.25
2023-05-15T03:40:04.844Z,9.20
2023-05-15T03:43:06.635Z,9.19
2023-05-15T03:46:08.204Z,9.18
2023-05-15T03:49:09.762Z,9.15
2023-05-15T03:52:11.408Z,9.13
2023-05-15T03:55:12.974Z,9.09
2023-05-15T03:58:14.528Z,9.06
2023-05-15T04:01:16.098Z,9.05
2023-05-15T04:04:17.671Z,9.03
2023-05-15T04:07:19.226Z,9.03
2023-05-15T04:10:20.790Z,9.03
2023-05-15T04:13:22.358Z,9.06
2023-05-15T04:16:23.956Z,9.08
2023-05-15T04:19:25.640Z,9.10
2023-05-15T04:22:27.255Z,9.12
2023-05-15T04:25:28.964Z,9.12
2023-05-15T04:28:31.626Z,9.15
2023-05-15T04:31:34.930Z,9.18
2023-05-15T04:34:36.824Z,9.23
2023-05-15T04:37:39.613Z,9.28
2023-05-15T04:40:41.166Z,9.34
2023-05-15T04:43:42.770Z,9.42
2023-05-15T04:46:44.606Z,9.47
2023-05-15T04:49:48.085Z,9.55
2023-05-15T04:52:49.638Z,9.60
2023-05-15T04:55:51.664Z,9.66
2023-05-15T04:58:53.542Z,9.70
2023-05-15T05:01:55.235Z,9.77
2023-05-15T05:04:56.761Z,9.83
2023-05-15T05:07:58.307Z,9.90
2023-05-15T05:10:59.895Z,9.96
2023-05-15T05:14:01.478Z,10.02
2023-05-15T05:17:03.805Z,10.09
2023-05-15T05:20:10.648Z,10.13
2023-05-15T05:23:15.145Z,10.18
2023-05-15T05:26:16.705Z,10.23
2023-05-15T05:29:18.266Z,10.28
2023-05-15T05:32:20.057Z,10.34
2023-05-15T05:35:21.731Z,10.37
2023-05-15T05:38:23.349Z,10.41
2023-05-15T05:41:24.880Z,10.45
2023-05-15T05:44:26.494Z,10.47
2023-05-15T05:47:28.032Z,10.49
2023-05-15T05:50:29.628Z,10.50
2023-05-15T05:53:31.227Z,10.53
2023-05-15T05:56:32.884Z,10.55
2023-05-15T05:59:34.640Z,10.59
2023-05-15T06:02:39.883Z,10.59
2023-05-15T06:05:41.662Z,10.63
2023-05-15T06:08:43.247Z,10.65
2023-05-15T06:11:45.513Z,10.67
2023-05-15T06:14:47.096Z,10.70
2023-05-15T06:17:48.988Z,10.73
2023-05-15T06:20:50.547Z,10.75
2023-05-15T06:23:52.079Z,10.79
2023-05-15T06:26:53.867Z,10.84
2023-05-15T06:29:55.632Z,10.87
2023-05-15T06:32:57.298Z,10.91
2023-05-15T06:35:58.911Z,10.96
2023-05-15T06:39:00.621Z,11.01
2023-05-15T06:42:02.314Z,11.05
2023-05-15T06:45:04.266Z,11.12
2023-05-15T06:48:06.137Z,11.35
2023-05-15T06:51:07.815Z,11.49
2023-05-15T06:54:09.389Z,11.50
2023-05-15T06:57:11.186Z,11.53
2023-05-15T07:00:13.575Z,11.55
2023-05-15T07:03:16.703Z,11.56
2023-05-15T07:06:18.291Z,11.57
2023-05-15T07:09:19.844Z,11.61
2023-05-15T07:12:21.362Z,11.66
2023-05-15T07:15:23.001Z,11.71
2023-05-15T07:18:24.614Z,11.77
2023-05-15T07:21:26.241Z,11.81
2023-05-15T07:24:27.824Z,11.88
2023-05-15T07:27:29.334Z,11.92
2023-05-15T07:30:30.902Z,11.98
2023-05-15T07:33:32.422Z,12.04
2023-05-15T07:36:33.952Z,12.11
2023-05-15T07:39:35.767Z,12.19
2023-05-15T07:42:37.636Z,12.29
2023-05-15T07:45:39.294Z,12.36
2023-05-15T07:48:40.913Z,12.44
2023-05-15T07:51:43.363Z,12.54
2023-05-15T07:54:44.942Z,12.63
2023-05-15T08:00:54.544Z,12.80
2023-05-15T08:03:56.702Z,12.89
2023-05-15T08:06:58.485Z,12.97
2023-05-15T08:10:00.249Z,13.05
2023-05-15T08:13:01.844Z,13.17
2023-05-15T08:16:04.146Z,13.29
2023-05-15T08:19:07.574Z,13.40
2023-05-15T08:22:09.459Z,13.52
2023-05-15T08:25:11.045Z,13.65
2023-05-15T08:28:13.713Z,13.75
2023-05-15T08:31:16.041Z,13.85
2023-05-15T08:34:17.710Z,13.97
2023-05-15T08:37:19.283Z,14.07
2023-05-15T08:40:34.375Z,14.19
2023-05-15T08:43:37.192Z,14.31
2023-05-15T08:46:39.171Z,14.43
2023-05-15T08:50:08.738Z,14.53
2023-05-15T08:53:14.240Z,14.62
2023-05-15T08:56:16.387Z,14.70
2023-05-15T08:59:18.402Z,14.74
2023-05-15T09:02:21.036Z,14.78
2023-05-15T09:05:22.786Z,14.82
2023-05-15T09:08:25.718Z,14.85
2023-05-15T09:11:28.838Z,14.90
2023-05-15T09:14:30.457Z,14.93
2023-05-15T09:17:32.296Z,14.94
2023-05-15T09:20:38.127Z,14.99
2023-05-15T09:23:39.705Z,15.02
2023-05-15T09:26:42.752Z,15.06
2023-05-15T09:29:44.482Z,15.08
2023-05-15T09:32:48.756Z,15.11
2023-05-15T09:35:50.615Z,15.18
2023-05-15T09:38:58.699Z,15.27
2023-05-15T09:42:12.330Z,15.37
2023-05-15T09:45:18.423Z,15.47
2023-05-15T09:48:20.149Z,15.57
2023-05-15T09:51:22.342Z,15.69
2023-05-15T09:54:25.226Z,15.84
2023-05-15T09:57:27.691Z,15.96
2023-05-15T10:00:32.069Z,16.07
2023-05-15T10:03:34.274Z,16.22
2023-05-15T10:06:44.096Z,16.40
2023-05-15T10:09:45.661Z,16.53
2023-05-15T10:12:48.424Z,16.67
2023-05-15T10:15:51.533Z,16.83
2023-05-15T10:18:53.249Z,17.01
2023-05-15T10:21:56.619Z,17.16
2023-05-15T10:25:08.848Z,17.27
2023-05-15T10:28:11.708Z,17.37
2023-05-15T10:31:14.010Z,17.47
2023-05-15T10:34:16.449Z,17.55
2023-05-15T10:37:19.055Z,17.65
2023-05-15T10:40:21.490Z,17.80
2023-05-15T10:43:23.793Z,17.91
2023-05-15T10:46:26.757Z,18.00
2023-05-15T10:49:28.283Z,18.05
2023-05-15T10:52:32.294Z,18.12
2023-05-15T10:55:34.133Z,18.17
2023-05-15T10:58:35.871Z,18.24
2023-05-15T11:01:40.136Z,18.34
2023-05-15T11:04:41.831Z,18.40
2023-05-15T11:07:43.541Z,18.46
2023-05-15T11:10:45.205Z,18.54
2023-05-15T11:14:05.318Z,18.62
2023-05-15T11:17:09.437Z,18.68
2023-05-15T11:20:14.514Z,18.76
2023-05-15T11:23:22.392Z,18.82
2023-05-15T11:26:33.333Z,18.91
2023-05-15T11:29:35.518Z,18.99
2023-05-15T11:32:59.106Z,19.06
2023-05-15T11:36:02.060Z,19.11
2023-05-15T11:39:11.382Z,19.20
2023-05-15T11:42:13.501Z,19.26
2023-05-15T11:45:15.133Z,19.28
2023-05-15T11:48:17.766Z,19.30
2023-05-15T11:51:27.813Z,19.37
2023-05-15T11:54:29.677Z,19.44
2023-05-15T11:57:31.652Z,19.53
2023-05-15T12:00:33.405Z,19.60
2023-05-15T12:03:36.289Z,19.66
2023-05-15T12:06:38.170Z,19.70
2023-05-15T12:09:40.637Z,19.76
2023-05-15T12:12:43.995Z,19.79
2023-05-15T12:15:47.088Z,19.80
2023-05-15T12:18:49.990Z,19.81
2023-05-15T12:21:51.599Z,19.84
2023-05-15T12:24:53.209Z,19.88
2023-05-15T12:27:54.852Z,19.88
2023-05-15T12:30:56.972Z,19.90
2023-05-15T12:33:58.632Z,19.91
2023-05-15T12:37:00.524Z,19.89
2023-05-15T12:40:22.318Z,19.85
2023-05-15T12:43:25.596Z,19.85
2023-05-15T12:46:30.553Z,19.81
2023-05-15T12:49:36.133Z,19.77
2023-05-15T12:52:37.696Z,19.76
2023-05-15T12:55:40.384Z,19.76
2023-05-15T12:58:41.964Z,19.79
2023-05-15T13:01:45.099Z,19.77
2023-05-15T13:04:47.327Z,19.70
2023-05-15T13:07:49.204Z,19.61
2023-05-15T13:10:58.206Z,19.59
2023-05-15T13:13:59.752Z,19.62
2023-05-15T13:17:05.062Z,19.62
2023-05-15T13:20:07.540Z,19.55
2023-05-15T13:23:10.989Z,19.46
2023-05-15T13:26:12.692Z,19.35
2023-05-15T13:29:14.297Z,19.22
2023-05-15T13:32:15.867Z,19.16
2023-05-15T13:35:17.566Z,19.12
2023-05-15T13:38:19.179Z,19.08
2023-05-15T13:41:21.190Z,19.02
2023-05-15T13:44:22.737Z,18.91
2023-05-15T13:47:24.358Z,18.79
2023-05-15T13:50:26.712Z,18.72
2023-05-15T13:53:32.067Z,18.58
2023-05-15T13:56:33.741Z,18.39
2023-05-15T13:59:35.498Z,18.34
2023-05-15T14:02:37.128Z,18.27
2023-05-15T14:05:38.844Z,18.18
2023-05-15T14:08:40.415Z,18.06
2023-05-15T14:11:41.948Z,17.98
2023-05-15T14:14:46.145Z,17.94
2023-05-15T14:17:48.829Z,17.93
2023-05-15T14:20:50.899Z,17.85
2023-05-15T14:23:52.525Z,17.73
2023-05-15T14:26:54.130Z,17.60
2023-05-15T14:29:56.812Z,17.53
2023-05-15T14:32:58.655Z,17.39
2023-05-15T14:36:01.146Z,17.26
2023-05-15T14:39:02.820Z,17.13
2023-05-15T14:42:04.785Z,17.04
2023-05-15T14:45:06.920Z,16.97
2023-05-15T14:48:09.588Z,16.87
2023-05-15T14:51:11.290Z,16.76
2023-05-15T14:54:12.852Z,16.71
2023-05-15T14:57:16.340Z,16.70
2023-05-15T15:00:18.288Z,16.66
2023-05-15T15:03:21.913Z,16.59
2023-05-15T15:06:23.671Z,16.61
2023-05-15T15:09:28.296Z,16.63
2023-05-15T15:12:30.719Z,16.63
2023-05-15T15:15:33.874Z,16.62
2023-05-15T15:18:35.506Z,16.55
2023-05-15T15:21:37.237Z,16.47
2023-05-15T15:24:38.789Z,16.38
2023-05-15T15:27:40.971Z,16.35
2023-05-15T15:30:42.519Z,16.35
2023-05-15T15:33:44.149Z,16.37
2023-05-15T15:36:45.801Z,16.35
2023-05-15T15:39:47.454Z,16.27
2023-05-15T15:42:48.993Z,16.17
2023-05-15T15:50:12.707Z,15.87
2023-05-15T15:53:14.305Z,15.78
2023-05-15T15:56:15.850Z,15.73
2023-05-15T15:59:17.554Z,15.66
2023-05-15T16:02:19.221Z,15.62
2023-05-15T16:05:20.925Z,15.59
2023-05-15T16:08:22.545Z,15.57
2023-05-15T16:11:24.102Z,15.56
2023-05-15T16:14:27.935Z,15.49
2023-05-15T16:17:29.646Z,15.38
2023-05-15T16:20:32.323Z,15.20
2023-05-15T16:23:35.654Z,14.99
2023-05-15T16:26:37.984Z,15.02
2023-05-15T16:29:39.580Z,14.98
2023-05-15T16:32:41.418Z,14.89
2023-05-15T16:35:43.028Z,14.78
2023-05-15T16:38:44.813Z,14.70
2023-05-15T16:41:46.425Z,14.63
2023-05-15T16:44:47.970Z,14.55
2023-05-15T16:47:49.614Z,14.42
2023-05-15T16:50:52.699Z,14.32
2023-05-15T16:53:56.582Z,14.16
2023-05-15T16:56:58.180Z,14.01
2023-05-15T16:59:59.790Z,13.82
2023-05-15T17:03:01.396Z,13.66
2023-05-15T17:06:03.830Z,13.56
2023-05-15T17:09:05.776Z,13.45
2023-05-15T17:12:07.519Z,13.36
2023-05-15T17:15:09.548Z,13.27
2023-05-15T17:18:11.127Z,13.17
2023-05-15T17:21:12.727Z,13.05
2023-05-15T17:24:15.884Z,12.91
2023-05-15T17:27:18.545Z,12.77
2023-05-15T17:30:20.479Z,12.72
2023-05-15T17:33:22.669Z,12.64
2023-05-15T17:36:24.808Z,12.55
2023-05-15T17:39:27.468Z,12.46
2023-05-15T17:42:29.570Z,12.40
2023-05-15T17:45:32.309Z,12.34
2023-05-15T17:48:34.062Z,12.25
2023-05-15T17:51:35.625Z,12.14
2023-05-15T17:54:37.232Z,12.06
2023-05-15T17:57:39.041Z,12.00
2023-05-15T18:00:40.931Z,11.94
2023-05-15T18:03:42.513Z,11.86
2023-05-15T18:06:44.124Z,11.81
2023-05-15T18:09:45.641Z,11.78
2023-05-15T18:12:47.650Z,11.76
2023-05-15T18:15:49.303Z,11.72
2023-05-15T18:18:52.153Z,11.67
2023-05-15T18:21:53.975Z,11.64
2023-05-15T18:24:55.563Z,11.55
2023-05-15T18:27:57.162Z,11.46
2023-05-15T18:30:59.115Z,11.41
2023-05-15T18:34:01.803Z,11.37
2023-05-15T18:37:03.339Z,11.36
2023-05-15T18:40:05.644Z,11.32
2023-05-15T18:43:07.878Z,11.27
2023-05-15T18:46:09.600Z,11.19
2023-05-15T18:49:11.189Z,11.15
2023-05-15T18:52:13.179Z,11.12
2023-05-15T18:55:14.908Z,11.20
2023-05-15T18:58:16.523Z,11.18
2023-05-15T19:01:18.200Z,11.17
2023-05-15T19:04:20.500Z,11.15
2023-05-15T19:07:22.076Z,11.14
2023-05-15T19:10:23.660Z,11.09
2023-05-15T19:13:25.430Z,11.06
2023-05-15T19:16:28.646Z,11.04
2023-05-15T19:19:30.482Z,11.01
2023-05-15T19:22:32.030Z,10.96
2023-05-15T19:25:33.569Z,10.94
2023-05-15T19:28:35.085Z,10.94
2023-05-15T19:31:38.601Z,10.95
2023-05-15T19:34:40.458Z,10.96
2023-05-15T19:37:42.351Z,10.94
2023-05-15T19:40:45.437Z,10.91
2023-05-15T19:43:50.468Z,10.84
2023-05-15T19:46:53.936Z,10.79
2023-05-15T19:49:56.294Z,10.75
2023-05-15T19:52:58.471Z,10.74
2023-05-15T19:56:00.204Z,10.71
2023-05-15T19:59:01.789Z,10.67
2023-05-15T20:02:05.162Z,10.66
2023-05-15T20:05:07.705Z,10.61
2023-05-15T20:08:09.450Z,10.58
2023-05-15T20:11:11.249Z,10.58
2023-05-15T20:14:14.897Z,10.58
2023-05-15T20:17:17.241Z,10.58
2023-05-15T20:20:19.502Z,10.54
2023-05-15T20:23:22.286Z,10.53
2023-05-15T20:26:24.029Z,10.49
2023-05-15T20:29:26.727Z,10.44
2023-05-15T20:32:29.587Z,10.43
2023-05-15T20:35:33.144Z,10.40
2023-05-15T20:38:35.327Z,10.38
2023-05-15T20:41:37.622Z,10.37
2023-05-15T20:44:40.649Z,10.38
2023-05-15T20:47:43.182Z,10.38
2023-05-15T20:50:46.542Z,10.37
2023-05-15T20:53:49.778Z,10.36
2023-05-15T20:56:53.268Z,10.34
2023-05-15T20:59:54.905Z,10.34
2023-05-15T21:02:56.481Z,10.36
2023-05-15T21:05:58.242Z,10.36
2023-05-15T21:08:59.795Z,10.36
2023-05-15T21:12:01.428Z,10.37
2023-05-15T21:15:04.373Z,10.36
2023-05-15T21:18:05.947Z,10.35
2023-05-15T21:21:07.556Z,10.32
2023-05-15T21:24:09.163Z,10.28
2023-05-15T21:27:10.918Z,10.24
2023-05-15T21:30:13.010Z,10.23
2023-05-15T21:33:14.574Z,10.22
2023-05-15T21:36:16.090Z,10.18
2023-05-15T21:39:17.617Z,10.18
2023-05-15T21:42:19.113Z,10.18
2023-05-15T21:45:20.773Z,10.17
2023-05-15T21:48:22.557Z,10.14
2023-05-15T21:51:24.135Z,10.13
2023-05-15T21:54:25.690Z,10.12
2023-05-15T21:57:27.330Z,10.12
2023-05-15T22:00:30.152Z,10.15
2023-05-15T22:03:32.445Z,10.18
2023-05-15T22:06:34.869Z,10.19
2023-05-15T22:09:37.277Z,10.19
2023-05-15T22:12:59.305Z,10.19
2023-05-15T22:16:01.016Z,10.24
2023-05-15T22:19:03.073Z,10.21
2023-05-15T22:22:05.031Z,10.18
2023-05-15T22:25:07.336Z,10.18
2023-05-15T22:28:08.884Z,10.13
2023-05-15T22:31:10.426Z,10.11
2023-05-15T22:34:12.003Z,10.08
2023-05-15T22:37:13.516Z,10.05
2023-05-15T22:40:15.619Z,10.01
2023-05-15T22:43:17.305Z,9.98
2023-05-15T22:46:18.906Z,9.95
2023-05-15T22:49:25.470Z,9.90
2023-05-15T22:52:27.198Z,9.85
2023-05-15T22:55:28.756Z,9.83
2023-05-15T22:58:30.341Z,9.82
2023-05-15T23:01:32.346Z,9.81
2023-05-15T23:04:34.544Z,9.80
2023-05-15T23:07:36.192Z,9.79
2023-05-15T23:10:37.720Z,9.77
2023-05-15T23:13:39.416Z,9.74
2023-05-15T23:16:41.030Z,9.72
2023-05-15T23:19:42.794Z,9.71
2023-05-15T23:22:44.361Z,9.70
2023-05-15T23:25:45.940Z,9.67
2023-05-15T23:28:47.705Z,9.65
2023-05-15T23:31:49.293Z,9.60
2023-05-15T23:34:52.000Z,9.56
2023-05-15T23:37:53.543Z,9.49
2023-05-15T23:40:55.115Z,9.45
2023-05-15T23:43:56.678Z,9.43
2023-05-15T23:46:58.253Z,9.39
2023-05-15T23:49:59.881Z,9.34
2023-05-15T23:53:01.722Z,9.29
2023-05-15T23:56:03.419Z,9.28
2023-05-15T23:59:05.028Z,9.24
